createdAt,value
2022-12-03T00:06:57.221Z,-11.79
2022-12-03T00:25:42.254Z,-12.09
2022-12-03T00:28:11.284Z,-12.01
2022-12-03T00:38:47.271Z,-12.01
2022-12-03T00:49:21.168Z,-11.99
2022-12-03T01:10:42.103Z,-12.09
2022-12-03T02:28:34.019Z,-12.91
2022-12-03T02:31:09.415Z,-12.98
2022-12-03T02:52:52.522Z,-13.02
2022-12-03T02:55:21.442Z,-13.27
2022-12-03T03:14:07.713Z,-13.30
2022-12-03T03:19:19.031Z,-13.07
2022-12-03T03:24:32.248Z,-13.34
2022-12-03T03:29:41.170Z,-13.21
2022-12-03T03:34:56.865Z,-13.14
2022-12-03T03:42:51.728Z,-13.25
2022-12-03T03:48:04.453Z,-13.39
2022-12-03T03:50:33.134Z,-13.26
2022-12-03T03:53:04.556Z,-13.21
2022-12-03T03:55:38.318Z,-13.40
2022-12-03T04:04:12.295Z,-13.46
2022-12-03T04:06:39.988Z,-13.58
2022-12-03T04:22:56.031Z,-13.32
2022-12-03T04:37:33.169Z,-13.44
2022-12-03T04:48:05.313Z,-13.49
2022-12-03T05:26:15.000Z,-13.61
2022-12-03T05:34:07.193Z,-13.33
2022-12-03T05:36:37.119Z,-13.37
2022-12-03T05:39:10.519Z,-13.33
2022-12-03T06:36:18.827Z,-12.26
2022-12-03T06:44:23.946Z,-11.82
2022-12-03T06:52:26.175Z,-11.72
2022-12-03T06:54:54.419Z,-11.68
2022-12-03T07:19:00.592Z,-11.34
2022-12-03T07:21:40.342Z,-11.32
2022-12-03T07:29:31.024Z,-11.33
2022-12-03T07:31:59.887Z,-11.26
2022-12-03T07:34:29.745Z,-11.01
2022-12-03T07:45:22.460Z,-10.98
2022-12-03T07:48:00.142Z,-10.74
2022-12-03T08:37:52.505Z,-9.77
2022-12-03T09:28:06.118Z,-8.93
2022-12-03T09:41:53.116Z,-9.17
2022-12-03T10:12:33.429Z,-9.07
2022-12-03T10:27:35.055Z,-8.86
2022-12-03T11:02:44.424Z,-8.70
2022-12-03T11:21:20.905Z,-8.64
2022-12-03T11:44:52.578Z,-8.48
2022-12-03T12:51:58.635Z,-8.16
2022-12-03T14:29:19.072Z,-7.76
2022-12-03T14:45:31.046Z,-7.66
2022-12-03T14:47:58.354Z,-7.59
2022-12-03T14:50:26.101Z,-7.53
2022-12-03T14:52:53.233Z,-7.69
2022-12-03T14:55:21.791Z,-7.53
2022-12-03T14:57:48.984Z,-7.64
2022-12-03T15:00:16.323Z,-7.43
2022-12-03T15:02:43.746Z,-7.58
2022-12-03T15:05:11.339Z,-7.58
2022-12-03T15:07:39.556Z,-7.47
2022-12-03T15:10:08.256Z,-7.42
2022-12-03T15:12:35.458Z,-7.44
2022-12-03T15:15:02.418Z,-7.47
2022-12-03T15:17:32.215Z,-7.48
2022-12-03T15:20:00.292Z,-7.59
2022-12-03T15:22:27.389Z,-7.33
2022-12-03T15:24:54.688Z,-7.34
2022-12-03T15:27:21.755Z,-7.32
2022-12-03T15:29:49.965Z,-7.48
2022-12-03T15:32:18.076Z,-7.35
2022-12-03T15:34:45.715Z,-7.54
2022-12-03T15:37:13.494Z,-7.49
2022-12-03T15:39:46.693Z,-7.37
2022-12-03T15:42:34.511Z,-7.34
2022-12-03T15:47:43.177Z,-7.32
2022-12-03T15:50:11.744Z,-7.32
2022-12-03T15:52:40.208Z,-7.16
2022-12-03T16:03:16.486Z,-7.21
2022-12-03T16:05:49.899Z,-7.28
2022-12-03T16:08:17.472Z,-7.31
2022-12-03T16:10:45.013Z,-7.36
2022-12-03T16:13:12.466Z,-7.52
2022-12-03T16:15:39.601Z,-7.31
2022-12-03T16:18:06.571Z,-7.35
2022-12-03T16:20:33.619Z,-7.50
2022-12-03T16:23:00.687Z,-7.40
2022-12-03T16:25:27.804Z,-7.63
2022-12-03T16:27:57.310Z,-7.74
2022-12-03T16:30:24.884Z,-7.63
2022-12-03T16:32:52.231Z,-7.80
2022-12-03T16:35:19.615Z,-7.90
2022-12-03T16:37:46.639Z,-7.67
2022-12-03T16:40:13.950Z,-7.73
2022-12-03T16:42:41.581Z,-7.73
2022-12-03T16:45:09.223Z,-7.60
2022-12-03T16:47:37.195Z,-7.78
2022-12-03T16:50:08.113Z,-7.60
2022-12-03T16:52:35.965Z,-7.72
2022-12-03T16:55:03.504Z,-7.66
2022-12-03T16:57:33.937Z,-7.69
2022-12-03T17:00:01.487Z,-7.83
2022-12-03T17:02:34.046Z,-7.84
2022-12-03T17:05:01.155Z,-7.77
2022-12-03T17:07:28.285Z,-7.88
2022-12-03T17:09:55.643Z,-7.95
2022-12-03T17:12:23.130Z,-8.05
2022-12-03T17:14:50.202Z,-7.92
2022-12-03T17:17:18.220Z,-7.94
2022-12-03T17:19:47.182Z,-7.85
2022-12-03T17:22:14.931Z,-7.96
2022-12-03T17:24:43.597Z,-8.03
2022-12-03T17:27:11.749Z,-7.87
2022-12-03T17:29:39.539Z,-8.01
2022-12-03T17:32:10.554Z,-7.91
2022-12-03T17:34:37.771Z,-7.94
2022-12-03T17:37:04.893Z,-7.88
2022-12-03T17:39:32.002Z,-8.06
2022-12-03T17:41:58.870Z,-7.95
2022-12-03T17:44:26.177Z,-8.07
2022-12-03T17:46:54.235Z,-8.14
2022-12-03T17:49:25.780Z,-8.10
2022-12-03T17:51:57.273Z,-8.08
2022-12-03T17:54:30.415Z,-8.05
2022-12-03T17:57:05.512Z,-8.03
2022-12-03T17:59:32.807Z,-7.94
2022-12-03T18:02:00.154Z,-8.06
2022-12-03T18:04:27.436Z,-8.11
2022-12-03T18:06:59.031Z,-8.20
2022-12-03T18:09:29.400Z,-8.15
2022-12-03T18:11:56.574Z,-8.20
2022-12-03T18:14:23.423Z,-7.95
2022-12-03T18:16:50.819Z,-7.95
2022-12-03T18:19:18.046Z,-7.92
2022-12-03T18:21:45.113Z,-8.02
2022-12-03T18:24:12.114Z,-7.99
2022-12-03T18:26:39.219Z,-8.01
2022-12-03T18:29:06.814Z,-7.95
2022-12-03T18:31:34.006Z,-8.06
2022-12-03T18:34:01.112Z,-8.07
2022-12-03T18:36:30.204Z,-8.00
2022-12-03T18:38:59.381Z,-8.15
2022-12-03T18:41:27.438Z,-8.13
2022-12-03T18:43:54.741Z,-8.19
2022-12-03T18:49:09.706Z,-8.10
2022-12-03T18:51:37.830Z,-8.06
2022-12-03T18:54:10.033Z,-8.12
2022-12-03T18:56:38.541Z,-8.06
2022-12-03T18:59:07.536Z,-7.98
2022-12-03T19:01:35.560Z,-7.99
2022-12-03T19:04:03.391Z,-8.12
2022-12-03T19:06:30.745Z,-8.12
2022-12-03T19:08:58.051Z,-8.24
2022-12-03T19:11:25.613Z,-8.11
2022-12-03T19:13:52.842Z,-8.18
2022-12-03T19:16:20.353Z,-7.95
2022-12-03T19:18:48.664Z,-8.09
2022-12-03T19:21:16.863Z,-8.17
2022-12-03T19:24:04.241Z,-8.09
2022-12-03T19:26:31.549Z,-8.14
2022-12-03T19:28:58.493Z,-7.98
2022-12-03T19:31:25.656Z,-8.07
2022-12-03T19:33:54.460Z,-7.84
2022-12-03T19:36:32.628Z,-8.00
2022-12-03T19:39:01.481Z,-7.93
2022-12-03T19:41:30.819Z,-8.06
2022-12-03T19:43:58.899Z,-7.94
2022-12-03T19:46:31.463Z,-7.94
2022-12-03T19:48:58.973Z,-8.06
2022-12-03T19:51:34.484Z,-8.06
2022-12-03T19:54:04.665Z,-8.05
2022-12-03T19:56:31.828Z,-7.99
2022-12-03T19:58:58.744Z,-7.84
2022-12-03T20:01:28.354Z,-7.95
2022-12-03T20:03:58.058Z,-7.81
2022-12-03T20:06:28.225Z,-7.93
2022-12-03T20:09:00.338Z,-7.95
2022-12-03T20:11:31.495Z,-7.85
2022-12-03T20:14:05.209Z,-7.95
2022-12-03T20:16:32.732Z,-7.89
2022-12-03T20:19:02.400Z,-7.87
2022-12-03T20:21:32.030Z,-7.85
2022-12-03T20:23:59.809Z,-7.99
2022-12-03T20:26:28.127Z,-7.80
2022-12-03T20:28:56.801Z,-7.89
2022-12-03T20:31:26.459Z,-7.91
2022-12-03T20:33:57.482Z,-7.92
2022-12-03T20:36:25.615Z,-8.00
2022-12-03T20:38:57.046Z,-7.91
2022-12-03T20:41:24.510Z,-7.85
2022-12-03T20:43:52.065Z,-7.93
2022-12-03T20:46:22.361Z,-7.86
2022-12-03T20:48:49.502Z,-7.87
2022-12-03T20:51:17.421Z,-7.94
2022-12-03T20:53:45.551Z,-8.14
2022-12-03T20:56:18.753Z,-8.06
2022-12-03T20:58:46.389Z,-7.93
2022-12-03T21:01:19.359Z,-7.95
2022-12-03T21:03:47.327Z,-7.96
2022-12-03T21:06:15.621Z,-8.16
2022-12-03T21:08:43.565Z,-8.08
2022-12-03T21:11:18.362Z,-8.14
2022-12-03T21:13:46.960Z,-8.13
2022-12-03T21:16:17.951Z,-8.16
2022-12-03T21:18:45.803Z,-8.21
2022-12-03T21:21:15.286Z,-7.97
2022-12-03T21:23:43.756Z,-8.09
2022-12-03T21:26:16.291Z,-8.08
2022-12-03T21:28:45.973Z,-8.10
2022-12-03T21:31:16.100Z,-7.98
2022-12-03T21:33:43.864Z,-7.90
2022-12-03T21:36:13.310Z,-8.00
2022-12-03T21:38:41.411Z,-8.01
2022-12-03T21:41:08.804Z,-7.85
2022-12-03T21:43:35.975Z,-7.85
2022-12-03T21:47:11.219Z,-7.91
2022-12-03T21:48:55.377Z,-7.94
2022-12-03T21:51:22.426Z,-7.79
2022-12-03T21:53:49.661Z,-7.80
2022-12-03T21:56:17.773Z,-7.73
2022-12-03T21:58:45.775Z,-7.87
2022-12-03T22:01:15.764Z,-7.71
2022-12-03T22:03:43.071Z,-7.88
2022-12-03T22:06:10.927Z,-7.98
2022-12-03T22:08:38.746Z,-8.07
2022-12-03T22:11:24.941Z,-8.09
2022-12-03T22:13:51.969Z,-8.13
2022-12-03T22:16:20.034Z,-7.99
2022-12-03T22:18:47.618Z,-8.22
2022-12-03T22:21:20.084Z,-8.03
2022-12-03T22:23:47.447Z,-8.23
2022-12-03T22:26:16.486Z,-8.06
2022-12-03T22:28:47.615Z,-8.17
2022-12-03T22:31:15.813Z,-8.21
2022-12-03T22:33:45.701Z,-8.19
2022-12-03T22:36:20.067Z,-8.34
2022-12-03T22:38:51.403Z,-8.20
2022-12-03T22:41:19.312Z,-8.26
2022-12-03T22:43:47.311Z,-8.31
2022-12-03T22:46:15.470Z,-8.21
2022-12-03T22:48:44.611Z,-8.18
2022-12-03T22:51:21.685Z,-8.31
2022-12-03T22:53:54.546Z,-8.13
2022-12-03T22:56:22.688Z,-8.35
2022-12-03T22:58:50.257Z,-8.15
2022-12-03T23:01:21.068Z,-8.16
2022-12-03T23:03:48.142Z,-8.10
2022-12-03T23:06:15.625Z,-8.33
2022-12-03T23:08:42.754Z,-8.38
2022-12-03T23:11:09.618Z,-8.35
2022-12-03T23:13:37.181Z,-8.40
2022-12-03T23:16:05.128Z,-8.46
2022-12-03T23:18:32.584Z,-8.46
2022-12-03T23:21:00.033Z,-8.62
2022-12-03T23:23:27.943Z,-8.70
2022-12-03T23:26:04.331Z,-8.69
2022-12-03T23:28:34.111Z,-8.83
2022-12-03T23:31:01.791Z,-8.77
2022-12-03T23:33:31.110Z,-8.74
2022-12-03T23:36:06.080Z,-8.94
2022-12-03T23:38:33.086Z,-8.98
2022-12-03T23:41:06.716Z,-8.84
2022-12-03T23:43:36.143Z,-9.09
2022-12-03T23:46:10.394Z,-9.13
2022-12-03T23:48:38.045Z,-9.14
2022-12-03T23:51:24.808Z,-9.05
2022-12-03T23:53:53.231Z,-9.13
2022-12-03T23:56:23.661Z,-9.35
2022-12-03T23:58:51.231Z,-9.43
